sensor_id;sensor_type;location;lat;lon;timestamp;P1;durP1;ratioP1;P2;durP2;ratioP2
9819;SDS011;4949;48.482;9.206;2022-12-04T00:01:42;15.77;;;10.70;;
9819;SDS011;4949;48.482;9.206;2022-12-04T00:06:42;16.80;;;11.30;;
9819;SDS011;4949;48.482;9.206;2022-12-04T00:11:43;16.33;;;10.80;;
9819;SDS011;4949;48.482;9.206;2022-12-04T00:16:44;17.90;;;10.97;;
9819;SDS011;4949;48.482;9.206;2022-12-04T00:21:45;11.80;;;8.77;;
9819;SDS011;4949;48.482;9.206;2022-12-04T00:26:48;15.87;;;10.57;;
9819;SDS011;4949;48.482;9.206;2022-12-04T00:31:49;14.80;;;10.13;;
9819;SDS011;4949;48.482;9.206;2022-12-04T00:36:50;15.97;;;10.27;;
9819;SDS011;4949;48.482;9.206;2022-12-04T00:41:53;14.60;;;10.77;;
9819;SDS011;4949;48.482;9.206;2022-12-04T00:46:54;15.20;;;11.23;;
9819;SDS011;4949;48.482;9.206;2022-12-04T00:51:54;13.57;;;10.00;;
9819;SDS011;4949;48.482;9.206;2022-12-04T00:56:55;13.30;;;9.30;;
9819;SDS011;4949;48.482;9.206;2022-12-04T01:01:56;13.97;;;9.70;;
9819;SDS011;4949;48.482;9.206;2022-12-04T01:06:56;13.70;;;10.53;;
9819;SDS011;4949;48.482;9.206;2022-12-04T01:11:57;16.17;;;11.50;;
9819;SDS011;4949;48.482;9.206;2022-12-04T01:17:00;13.90;;;9.80;;
9819;SDS011;4949;48.482;9.206;2022-12-04T01:22:01;14.00;;;10.07;;
9819;SDS011;4949;48.482;9.206;2022-12-04T01:27:02;12.57;;;9.90;;
9819;SDS011;4949;48.482;9.206;2022-12-04T01:32:03;13.00;;;9.70;;
9819;SDS011;4949;48.482;9.206;2022-12-04T01:37:04;15.20;;;10.73;;
9819;SDS011;4949;48.482;9.206;2022-12-04T01:42:05;13.63;;;9.00;;
9819;SDS011;4949;48.482;9.206;2022-12-04T01:47:08;15.80;;;10.90;;
9819;SDS011;4949;48.482;9.206;2022-12-04T01:52:17;14.70;;;10.40;;
9819;SDS011;4949;48.482;9.206;2022-12-04T01:57:24;14.30;;;9.90;;
9819;SDS011;4949;48.482;9.206;2022-12-04T02:02:34;12.60;;;10.00;;
9819;SDS011;4949;48.482;9.206;2022-12-04T02:07:39;12.40;;;10.00;;
9819;SDS011;4949;48.482;9.206;2022-12-04T02:18:14;10.73;;;9.30;;
9819;SDS011;4949;48.482;9.206;2022-12-04T02:29:11;13.87;;;9.07;;
9819;SDS011;4949;48.482;9.206;2022-12-04T02:40:25;17.63;;;10.63;;
9819;SDS011;4949;48.482;9.206;2022-12-04T02:45:46;13.33;;;10.30;;
9819;SDS011;4949;48.482;9.206;2022-12-04T02:50:55;15.33;;;11.00;;
9819;SDS011;4949;48.482;9.206;2022-12-04T02:56:02;14.20;;;10.80;;
9819;SDS011;4949;48.482;9.206;2022-12-04T03:01:11;14.20;;;9.97;;
9819;SDS011;4949;48.482;9.206;2022-12-04T03:06:19;13.40;;;10.10;;
9819;SDS011;4949;48.482;9.206;2022-12-04T03:11:25;13.37;;;10.13;;
9819;SDS011;4949;48.482;9.206;2022-12-04T03:16:30;14.53;;;11.20;;
9819;SDS011;4949;48.482;9.206;2022-12-04T03:21:36;20.47;;;13.37;;
9819;SDS011;4949;48.482;9.206;2022-12-04T03:26:47;17.03;;;12.07;;
9819;SDS011;4949;48.482;9.206;2022-12-04T03:38:14;17.40;;;13.30;;
9819;SDS011;4949;48.482;9.206;2022-12-04T03:43:05;16.77;;;12.07;;
9819;SDS011;4949;48.482;9.206;2022-12-04T03:48:20;16.70;;;13.60;;
9819;SDS011;4949;48.482;9.206;2022-12-04T03:54:18;19.83;;;14.20;;
9819;SDS011;4949;48.482;9.206;2022-12-04T03:59:25;16.20;;;12.53;;
9819;SDS011;4949;48.482;9.206;2022-12-04T04:04:37;15.97;;;12.40;;
9819;SDS011;4949;48.482;9.206;2022-12-04T04:09:41;17.93;;;13.80;;
9819;SDS011;4949;48.482;9.206;2022-12-04T04:14:49;12.27;;;10.40;;
9819;SDS011;4949;48.482;9.206;2022-12-04T04:20:24;12.27;;;9.13;;
9819;SDS011;4949;48.482;9.206;2022-12-04T04:25:58;11.33;;;9.13;;
9819;SDS011;4949;48.482;9.206;2022-12-04T04:41:53;14.07;;;9.70;;
9819;SDS011;4949;48.482;9.206;2022-12-04T04:47:07;14.50;;;10.23;;
9819;SDS011;4949;48.482;9.206;2022-12-04T04:52:16;13.73;;;9.40;;
9819;SDS011;4949;48.482;9.206;2022-12-04T04:57:27;14.30;;;10.40;;
9819;SDS011;4949;48.482;9.206;2022-12-04T05:02:32;14.13;;;11.00;;
9819;SDS011;4949;48.482;9.206;2022-12-04T05:07:33;14.80;;;10.33;;
9819;SDS011;4949;48.482;9.206;2022-12-04T05:12:34;15.20;;;10.57;;
9819;SDS011;4949;48.482;9.206;2022-12-04T05:17:35;12.13;;;9.90;;
9819;SDS011;4949;48.482;9.206;2022-12-04T05:22:36;12.93;;;10.10;;
9819;SDS011;4949;48.482;9.206;2022-12-04T05:27:36;14.53;;;9.80;;
9819;SDS011;4949;48.482;9.206;2022-12-04T05:32:37;14.10;;;9.70;;
9819;SDS011;4949;48.482;9.206;2022-12-04T05:37:40;14.57;;;9.93;;
9819;SDS011;4949;48.482;9.206;2022-12-04T05:42:44;13.03;;;9.13;;
9819;SDS011;4949;48.482;9.206;2022-12-04T05:47:45;10.43;;;8.87;;
9819;SDS011;4949;48.482;9.206;2022-12-04T05:52:45;12.67;;;9.60;;
9819;SDS011;4949;48.482;9.206;2022-12-04T05:57:46;11.07;;;9.30;;
9819;SDS011;4949;48.482;9.206;2022-12-04T06:02:47;13.27;;;8.87;;
9819;SDS011;4949;48.482;9.206;2022-12-04T06:07:48;11.60;;;9.43;;
9819;SDS011;4949;48.482;9.206;2022-12-04T06:12:48;13.60;;;9.37;;
9819;SDS011;4949;48.482;9.206;2022-12-04T06:17:50;10.70;;;8.97;;
9819;SDS011;4949;48.482;9.206;2022-12-04T06:22:50;12.43;;;9.90;;
9819;SDS011;4949;48.482;9.206;2022-12-04T06:27:51;11.57;;;9.53;;
9819;SDS011;4949;48.482;9.206;2022-12-04T06:32:52;14.43;;;9.63;;
9819;SDS011;4949;48.482;9.206;2022-12-04T06:37:53;15.80;;;10.33;;
9819;SDS011;4949;48.482;9.206;2022-12-04T06:42:53;12.37;;;9.53;;
9819;SDS011;4949;48.482;9.206;2022-12-04T06:47:55;12.50;;;10.00;;
9819;SDS011;4949;48.482;9.206;2022-12-04T06:52:55;15.90;;;9.87;;
9819;SDS011;4949;48.482;9.206;2022-12-04T06:57:56;11.77;;;9.30;;
9819;SDS011;4949;48.482;9.206;2022-12-04T07:02:57;11.83;;;9.27;;
9819;SDS011;4949;48.482;9.206;2022-12-04T07:07:57;12.27;;;10.10;;
9819;SDS011;4949;48.482;9.206;2022-12-04T07:13:01;19.10;;;11.17;;
9819;SDS011;4949;48.482;9.206;2022-12-04T07:18:03;14.70;;;10.37;;
9819;SDS011;4949;48.482;9.206;2022-12-04T07:23:04;16.83;;;10.47;;
9819;SDS011;4949;48.482;9.206;2022-12-04T07:28:04;13.50;;;10.70;;
9819;SDS011;4949;48.482;9.206;2022-12-04T07:33:05;14.27;;;9.73;;
9819;SDS011;4949;48.482;9.206;2022-12-04T07:38:06;15.00;;;9.90;;
9819;SDS011;4949;48.482;9.206;2022-12-04T07:43:07;15.10;;;10.50;;
9819;SDS011;4949;48.482;9.206;2022-12-04T07:48:07;12.80;;;9.47;;
9819;SDS011;4949;48.482;9.206;2022-12-04T07:53:08;12.30;;;10.53;;
9819;SDS011;4949;48.482;9.206;2022-12-04T07:58:10;13.33;;;10.83;;
9819;SDS011;4949;48.482;9.206;2022-12-04T08:03:10;11.30;;;8.87;;
9819;SDS011;4949;48.482;9.206;2022-12-04T08:08:11;12.80;;;10.20;;
9819;SDS011;4949;48.482;9.206;2022-12-04T08:13:12;13.07;;;10.20;;
9819;SDS011;4949;48.482;9.206;2022-12-04T08:18:12;13.40;;;10.10;;
9819;SDS011;4949;48.482;9.206;2022-12-04T08:23:13;15.17;;;9.97;;
9819;SDS011;4949;48.482;9.206;2022-12-04T08:28:14;14.63;;;10.33;;
9819;SDS011;4949;48.482;9.206;2022-12-04T08:33:19;15.73;;;10.53;;
9819;SDS011;4949;48.482;9.206;2022-12-04T08:38:20;11.30;;;9.20;;
9819;SDS011;4949;48.482;9.206;2022-12-04T08:43:21;13.43;;;10.27;;
9819;SDS011;4949;48.482;9.206;2022-12-04T08:48:21;13.10;;;10.57;;
9819;SDS011;4949;48.482;9.206;2022-12-04T08:53:22;14.80;;;10.53;;
9819;SDS011;4949;48.482;9.206;2022-12-04T08:58:24;13.37;;;10.27;;
9819;SDS011;4949;48.482;9.206;2022-12-04T09:03:25;12.63;;;10.30;;
9819;SDS011;4949;48.482;9.206;2022-12-04T09:08:25;12.80;;;10.20;;
9819;SDS011;4949;48.482;9.206;2022-12-04T09:13:26;13.27;;;10.70;;
9819;SDS011;4949;48.482;9.206;2022-12-04T09:18:27;14.80;;;11.43;;
9819;SDS011;4949;48.482;9.206;2022-12-04T09:23:28;13.27;;;10.30;;
9819;SDS011;4949;48.482;9.206;2022-12-04T09:28:32;12.57;;;9.70;;
9819;SDS011;4949;48.482;9.206;2022-12-04T09:33:33;14.87;;;9.90;;
9819;SDS011;4949;48.482;9.206;2022-12-04T09:38:34;15.57;;;10.60;;
9819;SDS011;4949;48.482;9.206;2022-12-04T09:43:39;17.03;;;12.30;;
9819;SDS011;4949;48.482;9.206;2022-12-04T09:48:50;13.00;;;10.00;;
9819;SDS011;4949;48.482;9.206;2022-12-04T09:54:01;15.50;;;11.17;;
9819;SDS011;4949;48.482;9.206;2022-12-04T09:59:24;15.37;;;11.50;;
9819;SDS011;4949;48.482;9.206;2022-12-04T10:04:29;14.40;;;11.63;;
9819;SDS011;4949;48.482;9.206;2022-12-04T10:20:45;13.67;;;11.67;;
9819;SDS011;4949;48.482;9.206;2022-12-04T10:25:52;14.40;;;9.43;;
9819;SDS011;4949;48.482;9.206;2022-12-04T10:30:56;12.57;;;10.00;;
9819;SDS011;4949;48.482;9.206;2022-12-04T10:36:01;16.47;;;11.53;;
9819;SDS011;4949;48.482;9.206;2022-12-04T10:41:46;17.23;;;11.90;;
9819;SDS011;4949;48.482;9.206;2022-12-04T10:46:49;16.30;;;11.73;;
9819;SDS011;4949;48.482;9.206;2022-12-04T10:51:56;18.30;;;12.43;;
9819;SDS011;4949;48.482;9.206;2022-12-04T11:07:21;16.83;;;12.67;;
9819;SDS011;4949;48.482;9.206;2022-12-04T11:12:30;14.67;;;12.03;;
9819;SDS011;4949;48.482;9.206;2022-12-04T11:17:31;16.90;;;11.93;;
9819;SDS011;4949;48.482;9.206;2022-12-04T11:22:33;16.23;;;10.83;;
9819;SDS011;4949;48.482;9.206;2022-12-04T11:27:52;25.30;;;16.70;;
9819;SDS011;4949;48.482;9.206;2022-12-04T11:32:59;14.60;;;11.57;;
9819;SDS011;4949;48.482;9.206;2022-12-04T11:38:13;17.20;;;11.50;;
9819;SDS011;4949;48.482;9.206;2022-12-04T11:43:20;16.23;;;12.43;;
9819;SDS011;4949;48.482;9.206;2022-12-04T11:48:25;16.23;;;11.77;;
9819;SDS011;4949;48.482;9.206;2022-12-04T12:26:20;19.67;;;13.93;;
9819;SDS011;4949;48.482;9.206;2022-12-04T12:42:30;18.70;;;13.33;;
9819;SDS011;4949;48.482;9.206;2022-12-04T12:47:46;21.53;;;15.40;;
9819;SDS011;4949;48.482;9.206;2022-12-04T12:52:57;23.70;;;14.10;;
9819;SDS011;4949;48.482;9.206;2022-12-04T12:58:13;17.53;;;12.53;;
9819;SDS011;4949;48.482;9.206;2022-12-04T13:03:34;18.20;;;13.10;;
9819;SDS011;4949;48.482;9.206;2022-12-04T13:14:24;18.00;;;13.93;;
9819;SDS011;4949;48.482;9.206;2022-12-04T13:19:27;20.07;;;12.30;;
9819;SDS011;4949;48.482;9.206;2022-12-04T13:24:46;16.07;;;12.17;;
9819;SDS011;4949;48.482;9.206;2022-12-04T13:30:18;16.90;;;10.93;;
9819;SDS011;4949;48.482;9.206;2022-12-04T13:41:19;15.50;;;12.60;;
9819;SDS011;4949;48.482;9.206;2022-12-04T13:51:34;15.00;;;11.73;;
9819;SDS011;4949;48.482;9.206;2022-12-04T13:56:45;16.30;;;12.20;;
9819;SDS011;4949;48.482;9.206;2022-12-04T14:01:58;18.33;;;12.70;;
9819;SDS011;4949;48.482;9.206;2022-12-04T14:07:02;16.53;;;12.93;;
9819;SDS011;4949;48.482;9.206;2022-12-04T14:12:04;16.60;;;11.50;;
9819;SDS011;4949;48.482;9.206;2022-12-04T14:17:19;18.80;;;13.23;;
9819;SDS011;4949;48.482;9.206;2022-12-04T14:22:26;15.80;;;12.47;;
9819;SDS011;4949;48.482;9.206;2022-12-04T14:27:41;21.70;;;14.10;;
9819;SDS011;4949;48.482;9.206;2022-12-04T14:32:53;20.40;;;15.03;;
9819;SDS011;4949;48.482;9.206;2022-12-04T14:38:10;21.90;;;14.33;;
9819;SDS011;4949;48.482;9.206;2022-12-04T14:43:22;22.13;;;15.03;;
9819;SDS011;4949;48.482;9.206;2022-12-04T14:55:16;22.13;;;16.03;;
9819;SDS011;4949;48.482;9.206;2022-12-04T15:00:31;18.43;;;12.87;;
9819;SDS011;4949;48.482;9.206;2022-12-04T15:05:33;17.90;;;12.73;;
9819;SDS011;4949;48.482;9.206;2022-12-04T15:10:34;19.13;;;13.23;;
9819;SDS011;4949;48.482;9.206;2022-12-04T15:15:53;15.50;;;11.27;;
9819;SDS011;4949;48.482;9.206;2022-12-04T15:20:55;19.83;;;12.57;;
9819;SDS011;4949;48.482;9.206;2022-12-04T15:26:02;16.60;;;13.23;;
9819;SDS011;4949;48.482;9.206;2022-12-04T15:31:18;16.67;;;11.73;;
9819;SDS011;4949;48.482;9.206;2022-12-04T15:36:54;18.83;;;13.53;;
9819;SDS011;4949;48.482;9.206;2022-12-04T15:47:24;17.50;;;13.67;;
9819;SDS011;4949;48.482;9.206;2022-12-04T15:52:31;25.30;;;19.27;;
9819;SDS011;4949;48.482;9.206;2022-12-04T15:57:39;30.93;;;19.80;;
9819;SDS011;4949;48.482;9.206;2022-12-04T16:02:41;30.27;;;18.90;;
9819;SDS011;4949;48.482;9.206;2022-12-04T16:07:49;32.20;;;21.10;;
9819;SDS011;4949;48.482;9.206;2022-12-04T16:12:57;39.40;;;20.53;;
9819;SDS011;4949;48.482;9.206;2022-12-04T16:18:01;34.77;;;20.03;;
9819;SDS011;4949;48.482;9.206;2022-12-04T16:23:06;28.33;;;19.57;;
9819;SDS011;4949;48.482;9.206;2022-12-04T16:28:08;25.37;;;18.17;;
9819;SDS011;4949;48.482;9.206;2022-12-04T16:33:12;26.77;;;19.20;;
9819;SDS011;4949;48.482;9.206;2022-12-04T16:38:16;29.73;;;19.50;;
9819;SDS011;4949;48.482;9.206;2022-12-04T16:43:17;31.27;;;18.90;;
9819;SDS011;4949;48.482;9.206;2022-12-04T16:48:18;26.83;;;18.47;;
9819;SDS011;4949;48.482;9.206;2022-12-04T16:53:21;29.80;;;19.00;;
9819;SDS011;4949;48.482;9.206;2022-12-04T16:58:24;26.63;;;18.47;;
9819;SDS011;4949;48.482;9.206;2022-12-04T17:08:28;32.20;;;20.37;;
9819;SDS011;4949;48.482;9.206;2022-12-04T17:13:29;27.87;;;18.93;;
9819;SDS011;4949;48.482;9.206;2022-12-04T17:18:30;27.43;;;18.40;;
9819;SDS011;4949;48.482;9.206;2022-12-04T17:23:33;25.97;;;17.00;;
9819;SDS011;4949;48.482;9.206;2022-12-04T17:28:34;26.00;;;18.47;;
9819;SDS011;4949;48.482;9.206;2022-12-04T17:33:35;28.47;;;18.33;;
9819;SDS011;4949;48.482;9.206;2022-12-04T17:38:36;26.67;;;17.87;;
9819;SDS011;4949;48.482;9.206;2022-12-04T17:43:40;24.47;;;17.80;;
9819;SDS011;4949;48.482;9.206;2022-12-04T17:48:44;25.13;;;17.03;;
9819;SDS011;4949;48.482;9.206;2022-12-04T17:53:45;24.20;;;16.50;;
9819;SDS011;4949;48.482;9.206;2022-12-04T17:58:47;22.40;;;15.40;;
9819;SDS011;4949;48.482;9.206;2022-12-04T18:03:50;26.10;;;17.80;;
9819;SDS011;4949;48.482;9.206;2022-12-04T18:08:59;21.47;;;14.73;;
9819;SDS011;4949;48.482;9.206;2022-12-04T18:14:03;25.07;;;16.27;;
9819;SDS011;4949;48.482;9.206;2022-12-04T18:19:08;22.80;;;16.10;;
9819;SDS011;4949;48.482;9.206;2022-12-04T18:24:10;23.50;;;16.23;;
9819;SDS011;4949;48.482;9.206;2022-12-04T18:29:12;21.53;;;16.17;;
9819;SDS011;4949;48.482;9.206;2022-12-04T18:34:17;26.90;;;17.70;;
9819;SDS011;4949;48.482;9.206;2022-12-04T18:39:20;25.73;;;17.00;;
9819;SDS011;4949;48.482;9.206;2022-12-04T18:44:23;24.00;;;16.43;;
9819;SDS011;4949;48.482;9.206;2022-12-04T18:49:24;26.30;;;16.97;;
9819;SDS011;4949;48.482;9.206;2022-12-04T18:54:28;26.37;;;16.97;;
9819;SDS011;4949;48.482;9.206;2022-12-04T18:59:30;26.27;;;16.70;;
9819;SDS011;4949;48.482;9.206;2022-12-04T19:04:32;25.93;;;16.57;;
9819;SDS011;4949;48.482;9.206;2022-12-04T19:09:33;24.93;;;17.17;;
9819;SDS011;4949;48.482;9.206;2022-12-04T19:14:33;22.27;;;15.40;;
9819;SDS011;4949;48.482;9.206;2022-12-04T19:19:34;23.67;;;17.20;;
9819;SDS011;4949;48.482;9.206;2022-12-04T19:24:37;21.07;;;14.27;;
9819;SDS011;4949;48.482;9.206;2022-12-04T19:29:38;20.60;;;15.50;;
9819;SDS011;4949;48.482;9.206;2022-12-04T19:34:43;21.70;;;16.13;;
9819;SDS011;4949;48.482;9.206;2022-12-04T19:39:46;21.47;;;15.40;;
9819;SDS011;4949;48.482;9.206;2022-12-04T19:44:47;21.57;;;14.77;;
9819;SDS011;4949;48.482;9.206;2022-12-04T19:49:50;23.67;;;14.90;;
9819;SDS011;4949;48.482;9.206;2022-12-04T19:54:51;22.57;;;14.60;;
9819;SDS011;4949;48.482;9.206;2022-12-04T19:59:52;22.03;;;13.80;;
9819;SDS011;4949;48.482;9.206;2022-12-04T20:04:53;19.97;;;13.80;;
9819;SDS011;4949;48.482;9.206;2022-12-04T20:09:53;21.20;;;14.30;;
9819;SDS011;4949;48.482;9.206;2022-12-04T20:14:56;24.80;;;16.90;;
9819;SDS011;4949;48.482;9.206;2022-12-04T20:19:57;28.13;;;17.77;;
9819;SDS011;4949;48.482;9.206;2022-12-04T20:24:58;22.07;;;13.93;;
9819;SDS011;4949;48.482;9.206;2022-12-04T20:30:03;21.73;;;14.37;;
9819;SDS011;4949;48.482;9.206;2022-12-04T20:35:04;17.27;;;12.93;;
9819;SDS011;4949;48.482;9.206;2022-12-04T20:40:06;12.90;;;9.93;;
9819;SDS011;4949;48.482;9.206;2022-12-04T20:45:07;16.53;;;12.03;;
9819;SDS011;4949;48.482;9.206;2022-12-04T20:50:10;13.07;;;10.53;;
9819;SDS011;4949;48.482;9.206;2022-12-04T20:55:13;14.03;;;9.80;;
9819;SDS011;4949;48.482;9.206;2022-12-04T21:00:19;12.40;;;9.83;;
9819;SDS011;4949;48.482;9.206;2022-12-04T21:05:22;12.20;;;10.37;;
9819;SDS011;4949;48.482;9.206;2022-12-04T21:10:23;12.13;;;10.27;;
9819;SDS011;4949;48.482;9.206;2022-12-04T21:15:24;13.07;;;10.30;;
9819;SDS011;4949;48.482;9.206;2022-12-04T21:20:57;14.87;;;10.10;;
9819;SDS011;4949;48.482;9.206;2022-12-04T21:26:00;14.30;;;10.57;;
9819;SDS011;4949;48.482;9.206;2022-12-04T21:31:03;14.67;;;9.67;;
9819;SDS011;4949;48.482;9.206;2022-12-04T21:36:07;14.43;;;10.30;;
9819;SDS011;4949;48.482;9.206;2022-12-04T21:41:10;13.37;;;10.33;;
9819;SDS011;4949;48.482;9.206;2022-12-04T21:46:34;15.40;;;11.10;;
9819;SDS011;4949;48.482;9.206;2022-12-04T21:51:35;15.73;;;10.17;;
9819;SDS011;4949;48.482;9.206;2022-12-04T21:56:38;10.77;;;9.63;;
9819;SDS011;4949;48.482;9.206;2022-12-04T22:01:41;14.07;;;10.33;;
9819;SDS011;4949;48.482;9.206;2022-12-04T22:06:42;19.13;;;11.43;;
9819;SDS011;4949;48.482;9.206;2022-12-04T22:11:45;15.13;;;10.83;;
9819;SDS011;4949;48.482;9.206;2022-12-04T22:16:48;14.17;;;10.00;;
9819;SDS011;4949;48.482;9.206;2022-12-04T22:21:53;14.13;;;10.97;;
9819;SDS011;4949;48.482;9.206;2022-12-04T22:26:53;14.93;;;10.20;;
9819;SDS011;4949;48.482;9.206;2022-12-04T22:31:54;14.30;;;9.00;;
9819;SDS011;4949;48.482;9.206;2022-12-04T22:36:55;14.23;;;10.70;;
9819;SDS011;4949;48.482;9.206;2022-12-04T22:41:55;14.40;;;11.10;;
9819;SDS011;4949;48.482;9.206;2022-12-04T22:46:56;18.50;;;12.03;;
9819;SDS011;4949;48.482;9.206;2022-12-04T22:51:57;16.30;;;11.37;;
9819;SDS011;4949;48.482;9.206;2022-12-04T22:57:01;15.93;;;11.33;;
9819;SDS011;4949;48.482;9.206;2022-12-04T23:02:02;18.80;;;13.17;;
9819;SDS011;4949;48.482;9.206;2022-12-04T23:07:03;15.87;;;12.67;;
9819;SDS011;4949;48.482;9.206;2022-12-04T23:12:07;17.30;;;12.33;;
9819;SDS011;4949;48.482;9.206;2022-12-04T23:17:10;15.57;;;10.60;;
9819;SDS011;4949;48.482;9.206;2022-12-04T23:22:13;17.10;;;13.10;;
9819;SDS011;4949;48.482;9.206;2022-12-04T23:27:14;16.67;;;11.93;;
9819;SDS011;4949;48.482;9.206;2022-12-04T23:32:15;17.27;;;12.57;;
9819;SDS011;4949;48.482;9.206;2022-12-04T23:37:15;19.07;;;12.60;;
9819;SDS011;4949;48.482;9.206;2022-12-04T23:42:16;16.60;;;11.70;;
9819;SDS011;4949;48.482;9.206;2022-12-04T23:47:17;15.00;;;11.13;;
9819;SDS011;4949;48.482;9.206;2022-12-04T23:52:20;16.80;;;13.50;;
9819;SDS011;4949;48.482;9.206;2022-12-04T23:57:21;16.27;;;11.80;;
